Time;durP1;ratioP1;P1;durP2;ratioP2;P2;SDS_P1;SDS_P2;PMS_P1;PMS_P2;Temp;Humidity;BMP_temperature;BMP_pressure;BME280_temperature;BME280_humidity;BME280_pressure;Samples;Min_cycle;Max_cycle;Signal;HPM_P1;HPM_P2
2022/09/17 00:01:28;;;;;;;4.35;1.60;;;9.80;99.90;;;;;;4977460;28;20501;-89
2022/09/17 00:04:00;;;;;;;3.60;1.40;;;9.80;99.90;;;;;;4978209;28;20964;-89
2022/09/17 00:06:29;;;;;;;3.45;1.27;;;9.70;99.90;;;;;;4979177;28;20434;-88
2022/09/17 00:08:56;;;;;;;6.05;1.75;;;9.70;99.90;;;;;;4987745;28;20397;-89
2022/09/17 00:11:27;;;;;;;5.90;1.60;;;9.80;99.90;;;;;;4991337;28;20396;-91
2022/09/17 00:13:57;;;;;;;4.95;1.40;;;9.80;99.90;;;;;;4999597;28;20389;-91
2022/09/17 00:16:32;;;;;;;3.60;1.40;;;9.70;99.90;;;;;;4978684;28;20402;-90
2022/09/17 00:19:01;;;;;;;5.30;1.33;;;9.80;99.90;;;;;;4962061;28;20449;-90
2022/09/17 00:21:29;;;;;;;4.03;1.67;;;9.70;99.90;;;;;;4978073;28;20481;-90
2022/09/17 00:23:59;;;;;;;5.57;1.65;;;9.80;99.90;;;;;;4988822;28;20401;-89
2022/09/17 00:26:28;;;;;;;3.17;1.40;;;9.80;99.90;;;;;;4981459;28;20484;-89
2022/09/17 00:28:57;;;;;;;2.70;1.08;;;9.80;99.90;;;;;;4997477;28;20973;-89
2022/09/17 00:31:26;;;;;;;6.30;1.70;;;9.80;99.90;;;;;;4997513;28;20487;-87
2022/09/17 00:33:54;;;;;;;3.00;1.23;;;9.80;99.90;;;;;;4997382;28;20412;-90
2022/09/17 00:36:22;;;;;;;3.53;1.30;;;9.90;99.90;;;;;;4997421;28;20392;-89
2022/09/17 00:38:51;;;;;;;4.30;1.45;;;9.80;99.90;;;;;;4997359;28;20822;-88
2022/09/17 00:41:20;;;;;;;4.00;1.38;;;9.80;99.90;;;;;;4983884;28;20901;-88
2022/09/17 00:43:51;;;;;;;3.55;1.30;;;9.80;99.90;;;;;;4974258;28;20407;-87
2022/09/17 00:46:39;;;;;;;5.50;1.50;;;9.70;99.90;;;;;;4972365;28;20829;-88
2022/09/17 00:49:16;;;;;;;3.40;1.45;;;9.70;99.90;;;;;;4971746;28;20483;-89
2022/09/17 00:52:09;;;;;;;3.17;1.50;;;9.70;99.90;;;;;;4971441;28;20403;-88
2022/09/17 00:54:39;;;;;;;3.60;1.40;;;9.70;99.90;;;;;;4967114;28;20404;-88
2022/09/17 00:57:07;;;;;;;4.80;1.30;;;9.80;99.90;;;;;;4955654;28;20903;-87
2022/09/17 00:59:34;;;;;;;4.60;1.30;;;9.80;99.90;;;;;;4964827;28;20445;-87
2022/09/17 01:02:03;;;;;;;4.57;1.30;;;9.90;99.90;;;;;;4972206;28;20553;-87
2022/09/17 01:04:31;;;;;;;4.10;1.50;;;9.90;99.90;;;;;;4961962;28;20426;-87
2022/09/17 01:07:10;;;;;;;3.13;1.08;;;9.80;99.90;;;;;;4974686;28;20409;-90
2022/09/17 01:10:02;;;;;;;3.92;1.45;;;9.70;99.90;;;;;;4974658;28;20410;-90
2022/09/17 01:12:55;;;;;;;2.80;1.20;;;9.70;99.90;;;;;;4974550;28;20870;-87
2022/09/17 01:15:28;;;;;;;1.70;0.93;;;9.70;99.90;;;;;;4969591;28;20406;-91
2022/09/17 01:18:05;;;;;;;1.90;1.00;;;9.70;99.90;;;;;;4959748;28;20784;-89
2022/09/17 01:21:07;;;;;;;4.78;1.27;;;9.70;99.90;;;;;;4954023;28;20400;-87
2022/09/17 01:23:53;;;;;;;3.33;1.10;;;9.70;99.90;;;;;;4968767;28;20417;-89
2022/09/17 01:26:42;;;;;;;3.47;0.90;;;9.70;99.90;;;;;;4955257;29;20439;-89
2022/09/17 01:29:28;;;;;;;4.28;1.05;;;9.70;99.90;;;;;;4961817;28;20404;-89
2022/09/17 01:32:08;;;;;;;3.80;1.13;;;9.70;99.90;;;;;;4970760;28;20404;-90
2022/09/17 01:35:12;;;;;;;3.65;1.10;;;9.70;99.90;;;;;;4961837;28;20392;-90
2022/09/17 01:38:00;;;;;;;3.13;0.90;;;9.70;99.90;;;;;;4953482;28;20420;-89
2022/09/17 01:40:46;;;;;;;2.58;1.13;;;9.70;99.90;;;;;;4954810;29;20883;-89
2022/09/17 01:43:32;;;;;;;3.53;1.00;;;9.70;99.90;;;;;;4970671;28;20390;-90
2022/09/17 01:46:06;;;;;;;3.40;1.00;;;9.60;99.90;;;;;;4970642;28;20770;-89
2022/09/17 01:48:44;;;;;;;3.60;1.10;;;9.60;99.90;;;;;;4970082;28;20408;-87
2022/09/17 01:51:19;;;;;;;4.33;1.10;;;9.70;99.90;;;;;;4956640;28;20405;-90
2022/09/17 01:54:17;;;;;;;3.30;1.02;;;9.60;99.90;;;;;;4973784;28;20393;-90
2022/09/17 01:57:10;;;;;;;2.47;0.90;;;9.60;99.90;;;;;;4967939;28;20400;-89
2022/09/17 02:00:00;;;;;;;2.72;0.90;;;9.50;99.90;;;;;;4953874;29;20392;-90
2022/09/17 02:02:44;;;;;;;3.30;1.05;;;9.60;99.90;;;;;;4968262;28;20400;-91
2022/09/17 02:05:25;;;;;;;3.05;1.20;;;9.60;99.90;;;;;;4970269;28;20412;-90
2022/09/17 02:08:09;;;;;;;3.80;1.10;;;9.60;99.90;;;;;;4970492;28;20896;-89
2022/09/17 02:10:48;;;;;;;2.95;1.05;;;9.60;99.90;;;;;;4971399;28;20394;-91
2022/09/17 02:13:51;;;;;;;3.65;0.98;;;9.70;99.90;;;;;;4970173;28;20400;-91
2022/09/17 02:16:24;;;;;;;1.73;1.00;;;9.70;99.90;;;;;;4969414;28;20404;-89
2022/09/17 02:19:22;;;;;;;2.67;0.98;;;9.70;99.90;;;;;;4973695;28;20786;-89
2022/09/17 02:22:02;;;;;;;2.10;0.95;;;9.60;99.90;;;;;;4974285;28;20405;-89
2022/09/17 02:24:39;;;;;;;3.77;1.10;;;9.60;99.90;;;;;;4972852;28;20410;-90
2022/09/17 02:27:10;;;;;;;4.07;1.13;;;9.60;99.90;;;;;;4969378;28;20411;-89
2022/09/17 02:29:41;;;;;;;4.53;1.10;;;9.50;99.90;;;;;;4953810;29;20415;-89
2022/09/17 02:32:10;;;;;;;1.92;1.00;;;9.60;99.90;;;;;;4953359;29;20416;-89
2022/09/17 02:34:38;;;;;;;2.08;1.02;;;9.60;99.90;;;;;;4963689;28;20424;-90
2022/09/17 02:37:06;;;;;;;3.90;0.80;;;9.70;99.90;;;;;;4972948;28;20449;-90
2022/09/17 02:39:34;;;;;;;2.72;1.02;;;9.70;99.90;;;;;;4972891;28;20410;-89
2022/09/17 02:42:21;;;;;;;3.22;0.90;;;9.70;99.90;;;;;;4972932;28;20406;-89
2022/09/17 02:45:18;;;;;;;2.80;1.10;;;9.70;99.90;;;;;;4972795;28;20411;-88
2022/09/17 02:48:24;;;;;;;4.65;1.17;;;9.60;99.90;;;;;;4972798;28;20437;-89
2022/09/17 02:51:06;;;;;;;2.50;1.02;;;9.60;99.90;;;;;;4973026;28;20403;-89
2022/09/17 02:53:43;;;;;;;3.47;1.20;;;9.60;99.90;;;;;;4972822;28;20399;-90
2022/09/17 02:56:26;;;;;;;3.80;0.90;;;9.60;99.90;;;;;;4972744;28;20398;-90
2022/09/17 02:59:08;;;;;;;4.63;1.30;;;9.60;99.90;;;;;;4972501;28;20765;-90
2022/09/17 03:01:43;;;;;;;3.85;1.40;;;9.60;99.90;;;;;;4972708;28;20461;-89
2022/09/17 03:04:16;;;;;;;3.75;1.58;;;9.60;99.90;;;;;;4972784;28;20395;-90
2022/09/17 03:06:46;;;;;;;3.70;1.30;;;9.60;99.90;;;;;;4972545;28;20438;-90
2022/09/17 03:09:14;;;;;;;3.67;1.50;;;9.70;99.90;;;;;;4971841;28;20489;-89
2022/09/17 03:11:42;;;;;;;5.55;1.45;;;9.70;99.90;;;;;;4963745;28;20566;-90
2022/09/17 03:14:09;;;;;;;3.72;1.40;;;9.70;99.90;;;;;;4959477;28;20410;-89
2022/09/17 03:16:37;;;;;;;4.05;1.50;;;9.60;99.90;;;;;;4971626;28;20394;-89
2022/09/17 03:19:05;;;;;;;3.28;1.30;;;9.60;99.90;;;;;;4972218;28;20411;-88
2022/09/17 03:21:32;;;;;;;4.83;1.40;;;9.60;99.90;;;;;;4966696;28;20492;-89
2022/09/17 03:24:00;;;;;;;3.92;1.20;;;9.70;99.90;;;;;;4969123;28;20495;-89
2022/09/17 03:26:27;;;;;;;4.50;1.80;;;9.60;99.90;;;;;;4958328;28;20447;-88
2022/09/17 03:28:56;;;;;;;4.13;1.40;;;9.60;99.90;;;;;;4953151;29;20412;-89
2022/09/17 03:31:23;;;;;;;6.32;1.52;;;9.60;99.90;;;;;;4968964;28;20400;-89
2022/09/17 03:33:51;;;;;;;5.22;2.00;;;9.60;99.90;;;;;;4953021;29;20412;-88
2022/09/17 03:36:19;;;;;;;3.20;1.17;;;9.60;99.90;;;;;;4952456;28;20475;-87
2022/09/17 03:38:46;;;;;;;4.40;2.25;;;9.60;99.90;;;;;;4967635;28;20423;-88
2022/09/17 03:41:14;;;;;;;3.50;1.75;;;9.70;99.90;;;;;;4969068;28;20412;-87
2022/09/17 03:43:42;;;;;;;4.38;1.60;;;9.70;99.90;;;;;;4984840;28;20508;-89
2022/09/17 03:46:09;;;;;;;4.53;1.53;;;9.60;99.90;;;;;;4950125;28;20487;-89
2022/09/17 03:48:38;;;;;;;4.90;1.38;;;9.70;99.90;;;;;;4952692;29;20435;-89
2022/09/17 03:51:06;;;;;;;3.58;1.40;;;9.70;99.90;;;;;;4950160;29;20982;-90
2022/09/17 03:53:34;;;;;;;5.90;1.65;;;9.60;99.90;;;;;;4971438;28;20458;-88
2022/09/17 03:56:03;;;;;;;3.33;1.50;;;9.70;99.90;;;;;;4968560;28;20763;-89
2022/09/17 03:58:32;;;;;;;4.10;1.48;;;9.70;99.90;;;;;;4952589;29;20416;-88
2022/09/17 04:00:59;;;;;;;5.13;1.40;;;9.70;99.90;;;;;;4955648;28;20406;-89
2022/09/17 04:03:27;;;;;;;4.10;1.40;;;9.60;99.90;;;;;;4968562;28;20440;-89
2022/09/17 04:05:55;;;;;;;5.10;1.35;;;9.70;99.90;;;;;;4968573;28;20418;-88
2022/09/17 04:08:23;;;;;;;4.20;1.10;;;9.70;99.90;;;;;;4952602;29;20407;-89
2022/09/17 04:10:51;;;;;;;3.22;0.98;;;9.70;99.90;;;;;;4937002;29;20440;-88
2022/09/17 04:13:18;;;;;;;2.65;0.95;;;9.70;99.90;;;;;;4953761;29;20491;-89
2022/09/17 04:15:46;;;;;;;2.22;1.00;;;9.70;99.90;;;;;;4956901;28;20485;-88
2022/09/17 04:18:14;;;;;;;3.70;0.98;;;9.70;99.90;;;;;;4953567;28;20404;-88
2022/09/17 04:20:42;;;;;;;2.42;1.20;;;9.70;99.90;;;;;;4953276;28;20396;-87
2022/09/17 04:23:11;;;;;;;4.32;1.10;;;9.70;99.90;;;;;;4972117;28;20396;-89
2022/09/17 04:25:39;;;;;;;2.10;1.02;;;9.70;99.90;;;;;;4956383;29;20766;-89
2022/09/17 04:28:07;;;;;;;3.30;1.10;;;9.60;99.90;;;;;;4956519;29;20404;-89
2022/09/17 04:30:35;;;;;;;3.78;1.20;;;9.60;99.90;;;;;;4956056;29;20491;-89
2022/09/17 04:33:03;;;;;;;3.55;1.10;;;9.60;99.90;;;;;;4956180;28;20408;-88
2022/09/17 04:35:31;;;;;;;2.90;1.00;;;9.70;99.90;;;;;;4955826;29;20486;-89
2022/09/17 04:37:59;;;;;;;2.60;1.45;;;9.70;99.90;;;;;;4955889;29;20404;-90
2022/09/17 04:40:27;;;;;;;3.80;1.08;;;9.70;99.90;;;;;;4955987;29;20393;-88
2022/09/17 04:42:58;;;;;;;2.03;1.00;;;9.70;99.90;;;;;;4971983;28;20811;-90
2022/09/17 04:45:25;;;;;;;3.25;1.10;;;9.70;99.90;;;;;;4955712;29;20432;-89
2022/09/17 04:47:53;;;;;;;1.60;1.00;;;9.60;99.90;;;;;;4955752;29;20457;-91
2022/09/17 04:50:21;;;;;;;2.67;0.90;;;9.70;99.90;;;;;;4955607;29;20396;-90
2022/09/17 04:52:49;;;;;;;2.45;1.05;;;9.70;99.90;;;;;;4955604;29;20424;-91
2022/09/17 04:55:16;;;;;;;2.47;1.25;;;9.70;99.90;;;;;;4955596;29;20388;-90
2022/09/17 04:57:48;;;;;;;3.33;1.50;;;9.70;99.90;;;;;;4955795;29;20404;-89
2022/09/17 05:00:17;;;;;;;3.90;1.60;;;9.70;99.90;;;;;;4955507;29;20768;-88
2022/09/17 05:02:47;;;;;;;3.88;1.30;;;9.70;99.90;;;;;;4955370;29;20404;-88
2022/09/17 05:05:16;;;;;;;3.88;1.40;;;9.70;99.90;;;;;;4956739;29;20871;-89
2022/09/17 05:07:44;;;;;;;3.30;1.60;;;9.70;99.90;;;;;;4955470;29;20396;-90
2022/09/17 05:10:13;;;;;;;4.40;1.70;;;9.70;99.90;;;;;;4955726;29;20741;-89
2022/09/17 05:12:47;;;;;;;5.30;1.55;;;9.70;99.90;;;;;;4955493;28;20779;-89
2022/09/17 05:15:14;;;;;;;3.75;1.65;;;9.70;99.90;;;;;;4959719;28;20398;-87
2022/09/17 05:17:42;;;;;;;6.57;1.40;;;9.70;99.90;;;;;;4972591;28;20402;-88
2022/09/17 05:20:11;;;;;;;3.88;1.55;;;9.70;99.90;;;;;;4974875;28;20414;-91
2022/09/17 05:22:50;;;;;;;3.75;1.70;;;9.70;99.90;;;;;;4971863;28;20477;-88
2022/09/17 05:25:22;;;;;;;4.07;1.70;;;9.80;99.90;;;;;;4969922;28;20402;-90
2022/09/17 05:27:52;;;;;;;4.70;1.73;;;9.70;99.90;;;;;;4974160;28;20727;-90
2022/09/17 05:30:19;;;;;;;5.32;2.25;;;9.70;99.90;;;;;;4974397;28;20879;-90
2022/09/17 05:32:47;;;;;;;7.37;2.20;;;9.70;99.90;;;;;;4973571;28;20403;-88
2022/09/17 05:35:15;;;;;;;3.85;1.85;;;9.70;99.90;;;;;;4959779;28;20445;-90
2022/09/17 05:37:42;;;;;;;7.90;2.90;;;9.70;99.90;;;;;;4962860;28;20408;-90
2022/09/17 05:40:10;;;;;;;4.43;2.00;;;9.70;99.90;;;;;;4970667;28;20475;-90
2022/09/17 05:42:38;;;;;;;4.38;2.08;;;9.70;99.90;;;;;;4967969;28;20435;-91
2022/09/17 05:45:06;;;;;;;5.82;2.20;;;9.70;99.90;;;;;;4966827;28;20427;-89
2022/09/17 05:47:35;;;;;;;3.80;1.70;;;9.80;99.90;;;;;;4963063;28;21004;-89
2022/09/17 05:50:04;;;;;;;4.30;2.05;;;9.70;99.90;;;;;;4984409;28;20397;-89
2022/09/17 05:52:32;;;;;;;3.85;1.50;;;9.80;99.90;;;;;;4963010;28;20470;-89
2022/09/17 05:55:01;;;;;;;4.70;1.33;;;9.70;99.90;;;;;;4976410;28;20899;-88
2022/09/17 05:57:29;;;;;;;4.50;1.65;;;9.70;99.90;;;;;;4990543;28;20415;-89
2022/09/17 05:59:56;;;;;;;5.25;1.45;;;9.80;99.90;;;;;;4993224;28;20407;-89
2022/09/17 06:02:24;;;;;;;4.55;1.95;;;9.80;99.90;;;;;;4977063;28;20460;-89
2022/09/17 06:04:52;;;;;;;5.68;1.45;;;9.70;99.90;;;;;;4961869;28;20416;-88
2022/09/17 06:07:20;;;;;;;5.47;1.50;;;9.80;99.90;;;;;;4954092;28;20511;-90
2022/09/17 06:09:47;;;;;;;4.10;1.58;;;9.80;99.90;;;;;;4964630;28;20394;-89
2022/09/17 06:12:15;;;;;;;4.50;1.13;;;9.80;99.90;;;;;;4973865;28;20494;-90
2022/09/17 06:14:42;;;;;;;3.50;1.40;;;9.80;99.90;;;;;;4973610;28;20395;-90
2022/09/17 06:17:10;;;;;;;4.20;1.38;;;9.90;99.90;;;;;;4973343;28;20440;-89
2022/09/17 06:19:37;;;;;;;2.78;1.20;;;9.80;99.90;;;;;;4973721;28;20429;-88
2022/09/17 06:22:05;;;;;;;5.53;1.67;;;9.80;99.90;;;;;;4971442;28;20485;-89
2022/09/17 06:24:32;;;;;;;5.22;1.90;;;9.80;99.90;;;;;;4964737;28;20500;-89
2022/09/17 06:27:00;;;;;;;4.68;1.50;;;9.90;99.90;;;;;;4970000;28;20416;-89
2022/09/17 06:29:28;;;;;;;3.75;1.65;;;9.90;99.90;;;;;;4965052;28;20402;-89
2022/09/17 06:31:57;;;;;;;4.57;2.35;;;9.90;99.90;;;;;;4973351;28;20402;-89
2022/09/17 06:34:25;;;;;;;4.93;2.15;;;9.90;99.90;;;;;;4972921;28;20402;-89
2022/09/17 06:36:53;;;;;;;4.03;2.10;;;9.90;99.90;;;;;;4969784;28;20461;-89
2022/09/17 06:39:21;;;;;;;5.75;2.15;;;9.90;99.90;;;;;;4972682;28;20418;-88
2022/09/17 06:41:52;;;;;;;7.37;2.30;;;9.90;99.90;;;;;;4971470;28;20402;-88
2022/09/17 06:44:20;;;;;;;4.63;2.47;;;9.90;99.90;;;;;;4965480;28;20399;-88
2022/09/17 06:46:51;;;;;;;5.07;2.60;;;9.90;99.90;;;;;;4953488;29;20444;-88
2022/09/17 06:49:19;;;;;;;6.55;2.80;;;9.90;99.90;;;;;;4953808;29;20401;-89
2022/09/17 06:51:46;;;;;;;4.03;2.00;;;9.90;99.90;;;;;;4954678;28;20399;-89
2022/09/17 06:54:14;;;;;;;3.58;2.08;;;9.90;99.90;;;;;;4953381;29;20403;-89
2022/09/17 06:56:41;;;;;;;4.60;2.28;;;9.90;99.90;;;;;;4953425;29;20495;-88
2022/09/17 06:59:09;;;;;;;3.95;2.00;;;9.90;99.90;;;;;;4953246;29;20430;-90
2022/09/17 07:01:36;;;;;;;4.75;1.90;;;9.90;99.90;;;;;;4953338;29;20903;-90
2022/09/17 07:04:04;;;;;;;5.33;1.93;;;9.90;99.90;;;;;;4969707;28;20403;-88
2022/09/17 07:06:33;;;;;;;5.27;1.80;;;9.90;99.90;;;;;;4940162;28;20450;-90
2022/09/17 07:09:00;;;;;;;5.80;1.60;;;9.90;99.90;;;;;;4975520;28;20494;-89
2022/09/17 07:11:30;;;;;;;3.53;1.30;;;10.00;99.90;;;;;;4969787;28;20889;-90
2022/09/17 07:13:58;;;;;;;4.35;1.52;;;10.00;99.90;;;;;;4971447;28;20736;-91
2022/09/17 07:16:25;;;;;;;4.38;1.80;;;10.00;99.90;;;;;;4972193;28;20391;-89
2022/09/17 07:18:53;;;;;;;3.90;1.88;;;10.00;99.90;;;;;;4969162;28;20763;-89
2022/09/17 07:21:20;;;;;;;4.22;1.90;;;10.00;99.90;;;;;;4953353;29;20887;-88
2022/09/17 07:23:50;;;;;;;4.00;1.83;;;10.00;99.90;;;;;;4956013;28;20420;-87
2022/09/17 07:26:18;;;;;;;3.60;1.70;;;10.00;99.90;;;;;;4967079;28;20467;-87
2022/09/17 07:28:47;;;;;;;4.15;1.38;;;10.00;99.90;;;;;;4952595;28;20767;-89
2022/09/17 07:31:16;;;;;;;4.05;1.30;;;10.00;99.90;;;;;;4976236;28;20418;-89
2022/09/17 07:33:44;;;;;;;2.95;1.10;;;10.00;99.90;;;;;;4956252;28;20394;-90
2022/09/17 07:36:14;;;;;;;2.92;1.25;;;10.10;99.90;;;;;;4972170;28;20497;-91
2022/09/17 07:38:41;;;;;;;3.00;1.05;;;10.10;99.90;;;;;;4972253;28;20466;-90
2022/09/17 07:41:12;;;;;;;3.88;1.50;;;10.00;99.90;;;;;;4969060;28;20876;-89
2022/09/17 07:43:41;;;;;;;2.53;1.20;;;10.10;99.90;;;;;;4959295;28;20391;-89
2022/09/17 07:46:17;;;;;;;3.05;1.20;;;10.10;99.90;;;;;;4973899;28;20905;-91
2022/09/17 07:48:46;;;;;;;1.90;0.93;;;10.10;99.90;;;;;;4967221;28;20410;-90
2022/09/17 07:51:19;;;;;;;3.15;1.10;;;10.10;99.90;;;;;;4954598;29;20400;-90
2022/09/17 07:53:49;;;;;;;1.73;1.10;;;10.10;99.90;;;;;;4952802;29;20400;-89
2022/09/17 07:56:17;;;;;;;2.35;0.93;;;10.10;99.90;;;;;;4959104;28;20484;-88
2022/09/17 07:58:44;;;;;;;2.63;1.20;;;10.20;99.90;;;;;;4975787;28;20802;-88
2022/09/17 08:01:15;;;;;;;3.40;1.70;;;10.20;99.90;;;;;;4975961;28;20485;-87
2022/09/17 08:03:50;;;;;;;3.40;1.40;;;10.10;99.90;;;;;;4969086;28;20443;-88
2022/09/17 08:06:21;;;;;;;3.90;1.48;;;10.10;99.90;;;;;;4974931;28;20410;-89
2022/09/17 08:08:49;;;;;;;3.13;1.40;;;10.10;99.90;;;;;;4966857;28;20463;-89
2022/09/17 08:11:19;;;;;;;4.32;1.55;;;10.20;99.90;;;;;;4973594;28;20427;-89
2022/09/17 08:14:11;;;;;;;2.90;1.30;;;10.20;99.90;;;;;;4958516;29;20479;-90
2022/09/17 08:16:39;;;;;;;3.05;1.60;;;10.20;99.90;;;;;;4956507;29;20906;-88
2022/09/17 08:19:09;;;;;;;5.78;2.03;;;10.30;99.90;;;;;;4939173;29;20392;-90
2022/09/17 08:21:37;;;;;;;4.00;1.95;;;10.30;99.90;;;;;;4956945;29;20396;-90
2022/09/17 08:24:05;;;;;;;4.10;1.70;;;10.30;99.90;;;;;;4972097;28;20432;-90
2022/09/17 08:26:32;;;;;;;3.00;1.70;;;10.20;99.90;;;;;;4972164;28;20454;-87
2022/09/17 08:29:00;;;;;;;4.50;1.67;;;10.30;99.90;;;;;;4956191;29;20408;-91
2022/09/17 08:31:29;;;;;;;3.92;1.83;;;10.30;99.90;;;;;;4974890;28;20421;-87
2022/09/17 08:33:57;;;;;;;7.68;1.85;;;10.20;99.90;;;;;;4965870;28;20404;-91
2022/09/17 08:36:25;;;;;;;4.68;2.00;;;10.30;99.90;;;;;;4971121;28;20457;-90
2022/09/17 08:38:54;;;;;;;2.97;2.03;;;10.30;99.90;;;;;;4975395;28;20525;-89
2022/09/17 08:41:41;;;;;;;3.08;1.73;;;10.30;99.90;;;;;;4975074;28;20461;-89
2022/09/17 08:44:35;;;;;;;7.15;2.03;;;10.30;99.90;;;;;;4975753;28;20390;-93
2022/09/17 08:47:35;;;;;;;5.75;2.10;;;10.30;99.90;;;;;;4972794;28;20412;-90
2022/09/17 08:50:16;;;;;;;4.57;1.98;;;10.40;99.90;;;;;;4954629;28;20458;-89
2022/09/17 08:53:05;;;;;;;5.00;2.30;;;10.40;99.90;;;;;;4971812;28;20415;-91
2022/09/17 08:55:45;;;;;;;4.85;1.80;;;10.40;99.90;;;;;;4974076;28;20418;-90
2022/09/17 08:58:32;;;;;;;7.22;1.83;;;10.40;99.90;;;;;;4968017;28;20402;-90
2022/09/17 09:01:37;;;;;;;3.50;1.80;;;10.40;99.90;;;;;;4975069;28;20406;-91
2022/09/17 09:04:41;;;;;;;3.42;1.70;;;10.50;99.90;;;;;;4975097;28;20527;-90
2022/09/17 09:07:25;;;;;;;4.63;1.98;;;10.40;99.90;;;;;;4958668;28;20413;-89
2022/09/17 09:10:12;;;;;;;3.63;1.65;;;10.40;99.90;;;;;;4974333;28;20476;-90
2022/09/17 09:12:42;;;;;;;4.88;1.90;;;10.50;99.90;;;;;;4974501;28;20943;-90
2022/09/17 09:15:41;;;;;;;4.80;1.70;;;10.50;99.90;;;;;;4992767;28;20820;-90
2022/09/17 09:18:19;;;;;;;2.92;1.80;;;10.50;99.90;;;;;;4970196;28;20418;-91
2022/09/17 09:21:25;;;;;;;3.95;1.88;;;10.50;99.90;;;;;;4974328;28;20399;-90
2022/09/17 09:24:08;;;;;;;4.07;1.95;;;10.50;99.90;;;;;;4958263;28;20417;-90
2022/09/17 09:26:49;;;;;;;5.90;1.83;;;10.50;99.90;;;;;;4981756;28;20401;-90
2022/09/17 09:29:46;;;;;;;4.72;2.10;;;10.50;99.90;;;;;;4993647;28;20480;-90
2022/09/17 09:32:55;;;;;;;5.38;2.20;;;10.60;99.90;;;;;;4993852;28;20479;-89
2022/09/17 09:35:24;;;;;;;4.87;2.60;;;10.60;99.90;;;;;;4977456;28;20439;-90
2022/09/17 09:38:20;;;;;;;4.05;1.73;;;10.70;99.90;;;;;;4993591;28;20409;-91
2022/09/17 09:41:17;;;;;;;3.10;1.80;;;10.70;99.90;;;;;;4977575;28;20421;-89
2022/09/17 09:43:55;;;;;;;6.00;1.73;;;10.70;99.90;;;;;;4969539;28;20462;-91
2022/09/17 09:46:50;;;;;;;4.57;1.87;;;10.70;99.90;;;;;;4974298;28;20884;-89
2022/09/17 09:49:58;;;;;;;3.95;1.73;;;10.70;99.90;;;;;;4974020;28;20469;-90
2022/09/17 09:52:35;;;;;;;3.47;1.80;;;10.70;99.90;;;;;;4958262;28;20676;-90
2022/09/17 09:55:34;;;;;;;3.00;2.00;;;10.70;99.90;;;;;;4958152;28;20398;-91
2022/09/17 09:58:23;;;;;;;3.72;1.63;;;10.70;99.90;;;;;;4974244;28;20410;-90
2022/09/17 10:00:51;;;;;;;3.58;1.58;;;10.80;99.90;;;;;;4974353;28;20406;-90
2022/09/17 10:03:27;;;;;;;2.60;1.40;;;10.80;99.90;;;;;;4973640;28;20904;-88
2022/09/17 10:06:07;;;;;;;2.40;1.30;;;10.80;99.90;;;;;;4970957;28;20408;-90
2022/09/17 10:08:37;;;;;;;5.18;1.63;;;10.80;99.90;;;;;;4970657;28;20768;-90
2022/09/17 10:11:15;;;;;;;2.72;1.60;;;10.80;99.90;;;;;;4970700;28;20558;-89
2022/09/17 10:13:43;;;;;;;5.63;1.75;;;10.90;99.90;;;;;;4970526;28;20479;-90
2022/09/17 10:16:24;;;;;;;4.82;1.55;;;10.90;99.90;;;;;;4964649;28;20416;-90
2022/09/17 10:19:06;;;;;;;3.20;1.50;;;11.00;99.90;;;;;;4958229;28;20397;-91
2022/09/17 10:21:36;;;;;;;3.30;1.50;;;11.00;99.90;;;;;;4970429;28;20412;-91
2022/09/17 10:24:18;;;;;;;3.17;1.25;;;11.10;99.90;;;;;;4959734;28;20432;-90
2022/09/17 10:27:00;;;;;;;2.63;1.60;;;11.10;99.90;;;;;;4973662;28;20416;-90
2022/09/17 10:29:28;;;;;;;3.93;1.63;;;11.10;99.90;;;;;;4970183;28;20448;-90
2022/09/17 10:31:56;;;;;;;3.45;1.50;;;11.20;99.90;;;;;;4975744;28;20495;-91
2022/09/17 10:34:27;;;;;;;3.28;1.50;;;11.20;99.90;;;;;;4965637;28;20461;-90
2022/09/17 10:36:56;;;;;;;3.90;1.75;;;11.20;99.90;;;;;;4964636;28;20406;-91
2022/09/17 10:39:31;;;;;;;3.03;1.52;;;11.30;99.90;;;;;;4976767;28;20404;-90
2022/09/17 10:42:12;;;;;;;3.50;1.40;;;11.30;99.90;;;;;;4976829;28;20760;-90
2022/09/17 10:44:57;;;;;;;2.72;1.58;;;11.40;99.90;;;;;;4992703;28;20670;-90
2022/09/17 10:47:36;;;;;;;2.90;1.63;;;11.50;99.90;;;;;;4977082;28;20463;-92
2022/09/17 10:50:03;;;;;;;3.30;1.58;;;11.70;99.90;;;;;;4976569;28;20419;-92
2022/09/17 10:52:45;;;;;;;3.80;1.50;;;11.80;99.90;;;;;;4992902;28;20397;-92
2022/09/17 10:55:32;;;;;;;4.10;1.70;;;11.80;99.90;;;;;;4988813;28;20424;-90
2022/09/17 10:58:23;;;;;;;3.00;1.50;;;11.70;99.90;;;;;;4962364;28;20463;-91
2022/09/17 11:01:16;;;;;;;2.78;1.40;;;11.70;99.90;;;;;;4937985;29;20412;-93
2022/09/17 11:04:04;;;;;;;2.92;1.40;;;11.60;99.90;;;;;;4953068;29;20408;-92
2022/09/17 11:07:20;;;;;;;2.00;1.30;;;11.70;99.90;;;;;;4953706;29;20744;-92
2022/09/17 11:10:11;;;;;;;1.92;1.15;;;11.60;99.90;;;;;;4954831;28;20403;-91
2022/09/17 11:12:55;;;;;;;3.08;1.20;;;11.70;99.90;;;;;;4953982;29;20400;-92
2022/09/17 11:15:23;;;;;;;3.08;1.30;;;11.60;99.90;;;;;;4954091;29;20404;-89
2022/09/17 11:18:02;;;;;;;1.83;1.20;;;11.60;99.90;;;;;;4958162;28;20416;-91
2022/09/17 11:20:56;;;;;;;3.10;1.37;;;11.60;99.90;;;;;;4954103;28;21023;-93
2022/09/17 11:23:38;;;;;;;2.03;1.10;;;11.60;99.90;;;;;;4954109;29;20487;-91
2022/09/17 11:26:26;;;;;;;2.40;1.20;;;11.70;99.90;;;;;;4953766;29;20436;-93
2022/09/17 11:29:02;;;;;;;2.27;1.10;;;11.80;99.90;;;;;;4953746;29;20412;-92
2022/09/17 11:31:58;;;;;;;2.97;1.30;;;11.90;99.90;;;;;;4955447;28;20416;-91
2022/09/17 11:34:41;;;;;;;2.15;1.25;;;11.90;99.90;;;;;;4961649;28;20495;-92
2022/09/17 11:37:15;;;;;;;2.33;1.20;;;11.80;99.90;;;;;;4956772;28;20486;-90
2022/09/17 11:39:57;;;;;;;2.47;1.25;;;11.80;99.90;;;;;;4972758;28;20505;-90
2022/09/17 11:42:35;;;;;;;2.75;1.40;;;11.80;99.90;;;;;;4973414;28;20430;-91
2022/09/17 11:45:26;;;;;;;3.25;1.25;;;11.70;99.90;;;;;;4973024;28;20481;-91
2022/09/17 11:48:16;;;;;;;2.40;1.00;;;11.70;99.90;;;;;;4972666;28;20433;-92
2022/09/17 11:50:53;;;;;;;4.00;1.13;;;11.70;99.90;;;;;;4972598;28;20946;-92
2022/09/17 11:53:38;;;;;;;3.77;1.10;;;11.90;99.90;;;;;;4972431;28;20399;-89
2022/09/17 11:56:23;;;;;;;1.40;0.83;;;12.10;99.90;;;;;;4972529;28;20821;-91
2022/09/17 11:59:17;;;;;;;2.70;1.00;;;12.20;99.90;;;;;;4972381;28;20778;-89
2022/09/17 12:02:22;;;;;;;2.85;0.90;;;12.30;99.90;;;;;;4958249;28;20400;-91
2022/09/17 12:05:00;;;;;;;2.15;0.88;;;12.40;99.90;;;;;;4943546;28;20497;-90
2022/09/17 12:07:46;;;;;;;2.80;0.70;;;12.60;99.90;;;;;;4974855;28;20850;-91
2022/09/17 12:10:25;;;;;;;1.73;0.95;;;12.80;99.90;;;;;;4962008;28;20407;-91
2022/09/17 12:13:02;;;;;;;3.47;0.90;;;13.00;99.90;;;;;;4959944;28;20413;-91
2022/09/17 12:15:37;;;;;;;1.80;0.75;;;13.10;99.90;;;;;;4976582;28;20413;-91
2022/09/17 12:18:44;;;;;;;2.00;0.70;;;13.30;99.90;;;;;;4972523;28;20809;-90
2022/09/17 12:21:17;;;;;;;2.13;0.80;;;13.30;99.90;;;;;;4972453;28;20390;-90
2022/09/17 12:23:52;;;;;;;3.30;0.70;;;13.60;99.90;;;;;;4973496;28;20510;-90
2022/09/17 12:26:52;;;;;;;2.60;1.00;;;13.60;99.90;;;;;;4973931;28;20421;-91
2022/09/17 12:29:52;;;;;;;2.45;0.80;;;13.60;99.90;;;;;;4973334;28;20506;-90
2022/09/17 12:32:32;;;;;;;1.52;0.60;;;13.70;99.90;;;;;;4954332;28;20483;-91
2022/09/17 12:35:29;;;;;;;1.92;0.70;;;13.80;99.90;;;;;;4953925;29;20392;-89
2022/09/17 12:38:49;;;;;;;4.07;0.70;;;13.80;99.90;;;;;;4939819;29;20883;-90
2022/09/17 12:41:38;;;;;;;1.73;0.60;;;13.80;99.90;;;;;;4936460;28;20416;-88
2022/09/17 12:44:26;;;;;;;1.60;0.70;;;14.00;99.90;;;;;;4957968;28;20410;-89
2022/09/17 12:47:12;;;;;;;2.20;0.60;;;14.30;99.90;;;;;;4957251;29;20424;-91
2022/09/17 12:49:53;;;;;;;2.28;0.60;;;14.30;99.90;;;;;;4957621;29;20739;-89
2022/09/17 12:52:45;;;;;;;1.67;0.50;;;14.20;99.90;;;;;;4958233;28;20487;-90
2022/09/17 12:55:50;;;;;;;1.30;0.60;;;14.20;99.90;;;;;;4983067;28;20450;-91
2022/09/17 12:59:05;;;;;;;1.63;0.60;;;14.00;99.90;;;;;;4961243;28;20392;-91
2022/09/17 13:01:47;;;;;;;1.80;0.63;;;13.70;99.90;;;;;;4971508;28;20496;-90
2022/09/17 13:04:36;;;;;;;2.30;0.68;;;13.50;99.90;;;;;;4961573;28;20408;-89
2022/09/17 13:07:42;;;;;;;1.20;0.60;;;13.40;99.90;;;;;;4958690;28;20400;-90
2022/09/17 13:10:28;;;;;;;1.55;0.60;;;13.30;99.90;;;;;;4972885;28;20396;-90
2022/09/17 13:13:19;;;;;;;1.70;0.60;;;13.20;99.90;;;;;;4978651;28;20389;-90
2022/09/17 13:16:24;;;;;;;1.00;0.40;;;13.20;99.90;;;;;;4993874;28;20457;-88
2022/09/17 13:18:58;;;;;;;2.13;0.60;;;13.20;99.90;;;;;;4955123;29;20953;-89
2022/09/17 13:21:59;;;;;;;4.00;0.70;;;13.20;99.90;;;;;;4969270;28;20475;-89
2022/09/17 13:24:30;;;;;;;1.23;0.70;;;13.20;99.90;;;;;;4955183;28;20423;-89
2022/09/17 13:27:00;;;;;;;2.47;0.60;;;13.20;99.90;;;;;;4955152;29;20427;-89
2022/09/17 13:29:54;;;;;;;0.98;0.45;;;13.20;99.90;;;;;;4992100;28;20411;-88
2022/09/17 13:32:34;;;;;;;2.97;0.60;;;13.30;99.90;;;;;;4982047;28;20521;-89
2022/09/17 13:35:10;;;;;;;2.35;0.70;;;13.10;99.90;;;;;;4970865;28;20436;-89
2022/09/17 13:37:56;;;;;;;1.17;0.60;;;13.00;99.90;;;;;;4963234;28;20561;-90
2022/09/17 13:40:30;;;;;;;2.28;0.60;;;12.80;99.90;;;;;;4974458;28;20464;-90
2022/09/17 13:43:05;;;;;;;5.35;0.95;;;12.70;99.90;;;;;;4966816;28;20397;-90